createdAt,value
2023-05-23T00:01:20.556Z,27.33
2023-05-23T00:04:10.284Z,27.00
2023-05-23T00:06:57.561Z,27.52
2023-05-23T00:09:49.420Z,26.70
2023-05-23T00:12:42.788Z,28.77
2023-05-23T00:15:31.198Z,30.40
2023-05-23T00:18:24.377Z,31.75
2023-05-23T00:21:16.444Z,32.20
2023-05-23T00:24:04.951Z,33.42
2023-05-23T00:26:52.226Z,35.38
2023-05-23T00:29:39.619Z,39.85
2023-05-23T00:32:28.149Z,40.58
2023-05-23T00:35:18.024Z,47.08
2023-05-23T00:38:07.785Z,47.15
2023-05-23T00:41:03.785Z,47.70
2023-05-23T00:43:51.018Z,47.33
2023-05-23T00:46:38.665Z,50.17
2023-05-23T00:49:28.478Z,50.95
2023-05-23T00:52:19.033Z,54.83
2023-05-23T00:55:13.015Z,56.30
2023-05-23T01:01:12.191Z,56.90
2023-05-23T01:04:08.001Z,57.33
2023-05-23T01:06:56.196Z,57.15
2023-05-23T01:09:43.590Z,59.92
2023-05-23T01:12:52.304Z,62.28
2023-05-23T01:15:46.445Z,63.92
2023-05-23T01:19:04.372Z,61.75
2023-05-23T01:22:21.986Z,70.05
2023-05-23T01:25:33.363Z,67.93
2023-05-23T01:28:26.860Z,69.90
2023-05-23T01:31:17.627Z,73.88
2023-05-23T01:34:05.767Z,71.22
2023-05-23T01:36:56.575Z,72.70
2023-05-23T01:39:44.106Z,72.63
2023-05-23T01:42:31.464Z,71.07
2023-05-23T01:45:19.419Z,69.95
2023-05-23T01:48:07.355Z,72.30
2023-05-23T01:50:57.707Z,73.70
2023-05-23T01:53:47.957Z,76.78
2023-05-23T01:56:36.836Z,75.07
2023-05-23T01:59:26.485Z,76.57
2023-05-23T02:02:13.977Z,76.95
2023-05-23T02:05:02.469Z,76.43
2023-05-23T02:07:49.700Z,76.47
2023-05-23T02:10:54.413Z,79.25
2023-05-23T02:13:45.820Z,78.47
2023-05-23T02:16:33.547Z,78.53
2023-05-23T02:19:25.403Z,80.88
2023-05-23T02:22:17.125Z,77.67
2023-05-23T02:25:05.614Z,84.68
2023-05-23T02:27:52.969Z,83.55
2023-05-23T02:30:42.906Z,82.78
2023-05-23T02:33:33.532Z,83.72
2023-05-23T02:36:20.905Z,84.97
2023-05-23T02:39:08.723Z,83.32
2023-05-23T02:42:00.931Z,86.43
2023-05-23T02:44:54.288Z,86.38
2023-05-23T02:47:49.129Z,84.30
2023-05-23T02:50:37.655Z,87.75
2023-05-23T02:53:28.660Z,86.43
2023-05-23T02:56:16.099Z,90.03
2023-05-23T02:59:03.844Z,87.82
2023-05-23T03:01:53.775Z,89.43
2023-05-23T03:04:42.484Z,91.10
2023-05-23T03:07:30.300Z,90.97
2023-05-23T03:10:18.012Z,89.00
2023-05-23T03:13:05.423Z,91.22
2023-05-23T03:15:55.684Z,92.97
2023-05-23T03:18:42.913Z,93.82
2023-05-23T03:21:39.259Z,92.57
2023-05-23T03:24:26.469Z,87.72
2023-05-23T03:27:16.739Z,92.10
2023-05-23T03:30:04.980Z,91.82
2023-05-23T03:32:53.896Z,89.03
2023-05-23T03:35:41.616Z,87.70
2023-05-23T03:38:31.214Z,85.97
2023-05-23T03:41:28.669Z,87.15
2023-05-23T03:44:17.630Z,86.35
2023-05-23T03:47:07.929Z,85.80
2023-05-23T03:49:57.696Z,82.03
2023-05-23T03:52:44.940Z,78.43
2023-05-23T03:55:33.067Z,81.85
2023-05-23T03:58:23.093Z,80.63
2023-05-23T04:08:24.725Z,75.65
2023-05-23T04:11:11.972Z,76.10
2023-05-23T04:13:59.417Z,78.28
2023-05-23T04:16:48.246Z,75.45
2023-05-23T04:19:36.064Z,74.20
2023-05-23T04:22:23.513Z,73.75
2023-05-23T04:25:11.916Z,71.32
2023-05-23T04:27:59.872Z,73.18
2023-05-23T04:30:51.097Z,70.72
2023-05-23T04:33:38.828Z,71.97
2023-05-23T04:36:27.500Z,71.70
2023-05-23T04:39:19.164Z,68.97
2023-05-23T04:42:07.428Z,72.60
2023-05-23T04:44:57.506Z,72.65
2023-05-23T04:47:45.000Z,73.57
2023-05-23T04:50:35.309Z,72.22
2023-05-23T04:53:23.297Z,70.03
2023-05-23T04:56:19.358Z,71.00
2023-05-23T04:59:12.723Z,70.40
2023-05-23T05:02:00.102Z,70.32
2023-05-23T05:04:48.412Z,70.57
2023-05-23T05:07:38.382Z,68.00
2023-05-23T05:10:27.483Z,72.13
2023-05-23T05:13:16.257Z,72.20
2023-05-23T05:24:12.972Z,71.70
2023-05-23T05:27:02.669Z,74.32
2023-05-23T05:29:50.333Z,73.65
2023-05-23T05:32:40.068Z,75.53
2023-05-23T05:44:12.714Z,73.05
2023-05-23T05:46:59.948Z,72.20
2023-05-23T05:49:51.550Z,72.85
2023-05-23T05:52:56.550Z,73.25
2023-05-23T06:20:05.551Z,65.30
2023-05-23T06:27:50.716Z,62.33
2023-05-23T07:20:06.987Z,49.55
2023-05-23T07:20:52.216Z,49.72
2023-05-23T07:24:01.792Z,49.53
2023-05-23T07:31:51.271Z,49.85
2023-05-23T07:37:53.927Z,47.90
2023-05-23T07:41:02.590Z,49.28
2023-05-23T07:50:38.474Z,51.28
2023-05-23T07:51:34.351Z,51.72
2023-05-23T07:53:44.029Z,50.58
2023-05-23T08:18:17.679Z,38.90
2023-05-23T08:20:52.621Z,41.22
2023-05-23T08:24:18.763Z,40.55
2023-05-23T08:27:49.699Z,40.90
2023-05-23T08:31:14.356Z,39.53
2023-05-23T08:34:15.398Z,35.58
2023-05-23T08:37:05.067Z,36.05
2023-05-23T08:40:04.574Z,34.05
2023-05-23T08:42:56.261Z,34.78
2023-05-23T08:45:49.514Z,34.30
2023-05-23T08:48:58.693Z,32.60
2023-05-23T08:52:03.643Z,31.40
2023-05-23T08:55:21.593Z,30.02
2023-05-23T09:02:33.592Z,29.80
2023-05-23T09:05:24.884Z,28.25
2023-05-23T09:08:52.216Z,27.30
2023-05-23T09:11:48.712Z,26.33
2023-05-23T09:15:01.389Z,26.60
2023-05-23T09:18:18.755Z,25.05
2023-05-23T10:06:49.254Z,17.48
2023-05-23T10:09:40.635Z,18.10
2023-05-23T10:13:03.707Z,18.33
2023-05-23T10:23:53.618Z,15.40
2023-05-23T10:26:41.239Z,15.15
2023-05-23T10:34:11.311Z,14.75
2023-05-23T10:37:30.444Z,14.20
2023-05-23T10:40:38.135Z,14.32
2023-05-23T10:44:14.824Z,13.98
2023-05-23T10:47:41.464Z,14.40
2023-05-23T10:55:44.117Z,13.98
2023-05-23T10:58:33.946Z,12.63
2023-05-23T11:01:24.098Z,13.15
2023-05-23T11:04:12.852Z,11.93
2023-05-23T11:07:02.448Z,10.90
2023-05-23T11:10:12.280Z,10.77
2023-05-23T11:13:19.216Z,9.85
2023-05-23T11:16:46.671Z,10.93
2023-05-23T11:23:10.957Z,10.57
2023-05-23T11:26:01.309Z,10.98
2023-05-23T11:28:58.975Z,11.30
2023-05-23T11:31:48.925Z,10.40
2023-05-23T11:35:35.813Z,11.20
2023-05-23T11:38:13.320Z,12.80
2023-05-23T11:41:00.812Z,12.70
2023-05-23T11:44:02.725Z,12.05
2023-05-23T11:47:06.926Z,11.40
2023-05-23T11:56:20.997Z,11.10
2023-05-23T11:57:15.519Z,11.02
2023-05-23T12:08:34.461Z,7.90
2023-05-23T12:11:44.769Z,7.60
2023-05-23T12:14:56.820Z,7.50
2023-05-23T12:18:09.194Z,8.25
2023-05-23T12:32:25.347Z,8.13
2023-05-23T12:39:38.476Z,6.78
2023-05-23T12:50:08.323Z,6.00
2023-05-23T14:25:17.637Z,3.90
2023-05-23T14:28:05.178Z,3.53
2023-05-23T14:30:52.794Z,4.03
2023-05-23T14:40:16.465Z,3.78
2023-05-23T14:43:05.957Z,3.75
2023-05-23T14:45:53.610Z,3.65
2023-05-23T14:48:42.277Z,3.33
2023-05-23T14:51:44.690Z,3.42
2023-05-23T14:54:37.153Z,3.70
2023-05-23T14:57:27.194Z,3.40
2023-05-23T15:00:16.872Z,3.30
2023-05-23T15:03:07.650Z,3.15
2023-05-23T15:06:03.133Z,3.40
2023-05-23T15:08:53.662Z,3.03
2023-05-23T15:11:48.166Z,2.60
2023-05-23T15:14:39.311Z,2.45
2023-05-23T15:17:29.409Z,3.08
2023-05-23T15:20:19.364Z,3.00
2023-05-23T15:23:08.174Z,3.33
2023-05-23T15:25:56.195Z,3.25
2023-05-23T15:28:47.957Z,3.63
2023-05-23T15:31:35.659Z,2.95
2023-05-23T15:34:24.717Z,2.97
2023-05-23T15:37:12.127Z,2.90
2023-05-23T15:40:02.798Z,3.15
2023-05-23T15:42:50.424Z,2.67
2023-05-23T15:45:40.297Z,3.20
2023-05-23T15:48:27.902Z,3.08
2023-05-23T15:51:18.105Z,3.20
2023-05-23T15:54:05.745Z,2.75
2023-05-23T15:56:56.419Z,3.13
2023-05-23T15:59:52.347Z,2.92
2023-05-23T16:02:39.728Z,3.10
2023-05-23T16:05:27.359Z,3.92
2023-05-23T16:08:27.370Z,3.50
2023-05-23T16:11:14.931Z,3.92
2023-05-23T16:14:02.416Z,3.70
2023-05-23T16:16:50.139Z,4.15
2023-05-23T16:19:38.091Z,3.90
2023-05-23T16:22:28.641Z,3.85
2023-05-23T16:25:39.548Z,4.50
2023-05-23T16:28:28.431Z,4.55
2023-05-23T16:31:17.151Z,5.05
2023-05-23T16:34:04.786Z,5.00
2023-05-23T16:36:52.634Z,4.65
2023-05-23T16:39:40.638Z,5.13
2023-05-23T16:42:27.834Z,5.20
2023-05-23T16:45:15.175Z,5.50
2023-05-23T16:48:09.415Z,5.65
2023-05-23T16:50:57.716Z,6.70
2023-05-23T16:53:55.099Z,8.05
2023-05-23T16:56:43.112Z,7.95
2023-05-23T16:59:32.323Z,7.80
2023-05-23T17:02:20.894Z,7.55
2023-05-23T17:05:10.879Z,7.90
2023-05-23T17:08:04.443Z,7.82
2023-05-23T17:11:12.668Z,8.35
2023-05-23T17:14:03.135Z,9.13
2023-05-23T17:16:53.039Z,9.85
2023-05-23T17:19:41.072Z,9.73
2023-05-23T17:22:32.344Z,9.73
2023-05-23T17:25:28.716Z,10.57
2023-05-23T17:28:19.421Z,10.18
2023-05-23T17:31:10.919Z,9.93
2023-05-23T17:34:00.580Z,10.55
2023-05-23T17:36:53.179Z,9.82
2023-05-23T17:42:43.418Z,9.27
2023-05-23T17:45:31.793Z,8.77
2023-05-23T17:48:20.988Z,8.93
2023-05-23T17:51:11.551Z,8.32
2023-05-23T17:53:59.597Z,8.93
2023-05-23T17:56:48.206Z,8.57
2023-05-23T17:59:35.908Z,8.93
2023-05-23T18:02:24.240Z,8.40
2023-05-23T18:06:01.977Z,7.93
2023-05-23T18:08:49.292Z,7.18
2023-05-23T18:11:38.016Z,7.53
2023-05-23T18:14:26.106Z,8.30
2023-05-23T18:17:13.550Z,7.63
2023-05-23T18:20:00.926Z,7.20
2023-05-23T18:22:54.398Z,7.20
2023-05-23T18:25:41.954Z,7.28
2023-05-23T18:28:34.121Z,7.63
2023-05-23T18:31:22.014Z,7.55
2023-05-23T18:34:10.845Z,8.13
2023-05-23T18:36:58.451Z,8.48
2023-05-23T18:39:46.436Z,8.70
2023-05-23T18:42:34.251Z,9.52
2023-05-23T18:45:22.229Z,9.68
2023-05-23T18:48:09.752Z,9.77
2023-05-23T18:50:57.567Z,10.50
2023-05-23T18:53:45.288Z,10.27
2023-05-23T18:56:32.997Z,10.43
2023-05-23T18:59:21.111Z,9.65
2023-05-23T19:02:08.945Z,10.35
2023-05-23T19:04:58.239Z,10.10
2023-05-23T19:07:46.903Z,11.57
2023-05-23T19:10:34.609Z,12.05
2023-05-23T19:13:24.367Z,12.13
2023-05-23T19:16:11.964Z,11.77
2023-05-23T19:19:00.341Z,13.05
2023-05-23T19:21:47.826Z,13.02
2023-05-23T19:24:35.664Z,13.10
2023-05-23T19:27:23.514Z,13.02
2023-05-23T19:30:11.916Z,13.18
2023-05-23T19:33:04.758Z,14.57
2023-05-23T19:35:55.588Z,15.10
2023-05-23T19:38:42.955Z,14.82
2023-05-23T19:41:33.078Z,15.43
2023-05-23T19:44:21.020Z,15.80
2023-05-23T19:47:08.385Z,14.80
2023-05-23T19:49:55.814Z,14.77
2023-05-23T19:52:46.033Z,15.27
2023-05-23T19:55:33.532Z,15.10
2023-05-23T19:58:21.190Z,14.35
2023-05-23T20:01:11.159Z,14.75
2023-05-23T20:03:58.924Z,15.40
2023-05-23T20:06:46.956Z,15.65
2023-05-23T20:09:34.438Z,15.35
2023-05-23T20:12:22.294Z,14.27
2023-05-23T20:15:10.567Z,14.27
2023-05-23T20:17:58.152Z,14.15
2023-05-23T20:20:45.908Z,15.93
2023-05-23T20:23:36.722Z,14.95
2023-05-23T20:26:24.681Z,16.23
2023-05-23T20:29:12.275Z,14.23
2023-05-23T20:31:59.914Z,16.63
2023-05-23T20:34:47.325Z,15.38
2023-05-23T20:37:34.925Z,14.73
2023-05-23T20:40:25.919Z,14.43
2023-05-23T20:43:20.753Z,13.95
2023-05-23T20:46:11.950Z,14.85
2023-05-23T20:49:01.697Z,13.88
2023-05-23T20:51:49.711Z,14.20
2023-05-23T20:54:38.342Z,13.80
2023-05-23T20:57:27.766Z,13.63
2023-05-23T21:00:16.175Z,13.25
2023-05-23T21:03:04.138Z,12.98
2023-05-23T21:05:52.088Z,12.10
2023-05-23T21:08:39.335Z,12.05
2023-05-23T21:11:26.885Z,11.10
2023-05-23T21:14:16.738Z,10.38
2023-05-23T21:17:04.669Z,9.00
2023-05-23T21:19:52.173Z,8.50
2023-05-23T21:22:42.630Z,7.55
2023-05-23T21:25:29.812Z,7.55
2023-05-23T21:28:19.504Z,8.02
2023-05-23T21:31:07.694Z,7.72
2023-05-23T21:33:55.268Z,6.55
2023-05-23T21:36:42.445Z,7.13
2023-05-23T21:39:42.909Z,6.95
2023-05-23T21:42:31.184Z,6.90
2023-05-23T21:45:22.739Z,6.90
2023-05-23T21:48:09.945Z,6.68
2023-05-23T21:50:58.512Z,6.90
2023-05-23T21:53:45.713Z,6.10
2023-05-23T21:56:33.322Z,6.18
2023-05-23T21:59:20.728Z,6.57
2023-05-23T22:02:08.401Z,6.57
2023-05-23T22:05:01.965Z,6.68
2023-05-23T22:07:49.117Z,6.90
2023-05-23T22:10:37.116Z,6.82
2023-05-23T22:13:24.590Z,7.07
2023-05-23T22:16:12.271Z,6.60
2023-05-23T22:19:00.797Z,6.50
2023-05-23T22:21:48.595Z,6.28
2023-05-23T22:24:36.036Z,6.60
2023-05-23T22:27:23.655Z,6.70
2023-05-23T22:30:11.457Z,6.53
2023-05-23T22:33:01.829Z,6.75
2023-05-23T22:35:49.263Z,6.70
2023-05-23T22:38:38.065Z,6.50
2023-05-23T22:41:31.404Z,6.90
2023-05-23T22:44:19.023Z,6.63
2023-05-23T22:47:06.416Z,6.95
2023-05-23T22:49:58.869Z,7.13
2023-05-23T22:52:46.543Z,7.38
2023-05-23T22:55:34.926Z,7.45
2023-05-23T22:58:22.426Z,7.30
2023-05-23T23:01:12.011Z,8.15
2023-05-23T23:04:00.091Z,7.80
2023-05-23T23:06:47.516Z,8.32
2023-05-23T23:09:35.005Z,7.60
2023-05-23T23:12:22.925Z,7.05
2023-05-23T23:15:10.338Z,6.97
2023-05-23T23:17:57.737Z,6.85
2023-05-23T23:20:46.980Z,7.45
2023-05-23T23:23:39.686Z,6.20
2023-05-23T23:26:27.826Z,6.97
2023-05-23T23:29:15.170Z,6.95
2023-05-23T23:32:02.420Z,6.00
2023-05-23T23:34:49.639Z,7.10
2023-05-23T23:37:36.903Z,5.80
2023-05-23T23:40:24.191Z,6.88
2023-05-23T23:43:12.693Z,5.72
2023-05-23T23:45:59.991Z,6.13
2023-05-23T23:48:47.612Z,6.45
2023-05-23T23:51:35.199Z,6.30
2023-05-23T23:54:24.924Z,5.82
2023-05-23T23:57:14.039Z,5.53
